Time;durP1;ratioP1;P1;durP2;ratioP2;P2;SDS_P1;SDS_P2;PMS_P1;PMS_P2;Temp;Humidity;BMP_temperature;BMP_pressure;BME280_temperature;BME280_humidity;BME280_pressure;Samples;Min_cycle;Max_cycle;Signal;HPM_P1;HPM_P2
2023/01/16 00:00:08;;;;;;;1.95;1.02;;;2.10;99.90;;;;;;5051063;28;20445;-62
2023/01/16 00:02:35;;;;;;;;;;;2.10;99.90;;;;;;5047631;28;20494;-62
2023/01/16 00:05:02;;;;;;;4.75;1.75;;;2.20;99.90;;;;;;5048291;28;19971;-62
2023/01/16 00:07:29;;;;;;;2.20;1.20;;;2.20;99.90;;;;;;5051767;28;20098;-62
2023/01/16 00:09:55;;;;;;;2.88;0.80;;;2.20;99.90;;;;;;5051512;28;20070;-62
2023/01/16 00:12:22;;;;;;;2.13;0.63;;;2.10;99.90;;;;;;5070078;28;20497;-62
2023/01/16 00:14:49;;;;;;;2.72;0.80;;;2.10;99.90;;;;;;5046450;28;20052;-62
2023/01/16 00:17:15;;;;;;;1.00;0.70;;;2.10;99.90;;;;;;5031678;28;20100;-62
2023/01/16 00:19:42;;;;;;;2.05;0.70;;;2.00;99.90;;;;;;5030858;28;20551;-62
2023/01/16 00:22:09;;;;;;;1.85;0.70;;;1.90;99.90;;;;;;5031119;28;20037;-62
2023/01/16 00:24:36;;;;;;;1.70;0.70;;;1.90;99.90;;;;;;5021232;28;20498;-62
2023/01/16 00:27:02;;;;;;;1.65;0.77;;;1.90;99.90;;;;;;5036204;28;20114;-62
2023/01/16 00:29:29;;;;;;;1.25;0.70;;;1.80;99.90;;;;;;5044688;28;20110;-62
2023/01/16 00:31:56;;;;;;;1.02;0.65;;;1.80;99.90;;;;;;5049207;28;20079;-62
2023/01/16 00:34:23;;;;;;;1.05;0.50;;;1.80;99.90;;;;;;5047959;28;20478;-62
2023/01/16 00:36:50;;;;;;;2.90;1.80;;;1.80;99.90;;;;;;5069077;28;20045;-62
2023/01/16 00:39:16;;;;;;;4.68;0.80;;;1.70;99.90;;;;;;5057278;28;20041;-62
2023/01/16 00:41:43;;;;;;;0.90;0.57;;;1.70;99.90;;;;;;5050655;28;20041;-62
2023/01/16 00:44:10;;;;;;;4.35;0.73;;;1.70;99.90;;;;;;5054372;28;20049;-62
2023/01/16 00:46:36;;;;;;;2.83;1.00;;;1.70;99.90;;;;;;5070767;28;20090;-62
2023/01/16 00:49:03;;;;;;;0.63;0.50;;;1.70;99.90;;;;;;5052368;28;20417;-62
2023/01/16 00:51:30;;;;;;;2.10;0.82;;;1.70;99.90;;;;;;5070244;28;20090;-62
2023/01/16 00:53:56;;;;;;;2.67;0.70;;;1.70;99.90;;;;;;5055187;28;20100;-62
2023/01/16 00:56:23;;;;;;;6.47;1.38;;;1.60;99.90;;;;;;5058137;28;20083;-62
2023/01/16 00:58:50;;;;;;;2.00;0.85;;;1.70;99.90;;;;;;5068911;28;20076;-62
2023/01/16 01:01:16;;;;;;;2.78;0.98;;;1.70;99.90;;;;;;5060801;28;20041;-62
2023/01/16 01:03:43;;;;;;;2.38;0.73;;;1.70;99.90;;;;;;5049070;28;20049;-62
2023/01/16 01:06:11;;;;;;;1.95;0.70;;;1.60;99.90;;;;;;5050693;28;20044;-62
2023/01/16 01:08:38;;;;;;;1.13;0.80;;;1.50;99.90;;;;;;5070613;28;20037;-62
2023/01/16 01:11:11;;;;;;;1.10;0.73;;;1.50;99.90;;;;;;5070509;28;20040;-62
2023/01/16 01:13:38;;;;;;;2.08;0.80;;;1.40;99.90;;;;;;5070395;28;20451;-62
2023/01/16 01:16:06;;;;;;;1.42;0.55;;;1.40;99.90;;;;;;5059198;28;20109;-62
2023/01/16 01:18:33;;;;;;;0.98;0.50;;;1.40;99.90;;;;;;5070434;28;20357;-61
2023/01/16 01:21:00;;;;;;;0.85;0.38;;;1.40;99.90;;;;;;5048966;28;20048;-62
2023/01/16 01:23:27;;;;;;;0.88;0.70;;;1.30;99.90;;;;;;5055610;28;20518;-62
2023/01/16 01:25:54;;;;;;;1.95;0.70;;;1.40;99.90;;;;;;5047427;28;20444;-62
2023/01/16 01:28:20;;;;;;;1.90;0.82;;;1.40;99.90;;;;;;5040998;28;20484;-62
2023/01/16 01:30:47;;;;;;;3.45;1.38;;;1.50;99.90;;;;;;5030235;28;20118;-62
2023/01/16 01:33:14;;;;;;;1.63;0.63;;;1.50;99.90;;;;;;5030140;28;20095;-62
2023/01/16 01:35:41;;;;;;;3.40;1.27;;;1.50;99.90;;;;;;5030798;28;20045;-62
2023/01/16 01:38:08;;;;;;;3.30;1.20;;;1.50;99.90;;;;;;5042781;28;20040;-62
2023/01/16 01:40:34;;;;;;;1.85;1.00;;;1.50;99.90;;;;;;5034839;28;20066;-62
2023/01/16 01:43:01;;;;;;;3.53;1.02;;;1.50;99.90;;;;;;5045384;28;20045;-62
2023/01/16 01:45:30;;;;;;;3.45;0.80;;;1.50;99.90;;;;;;5054266;28;20043;-62
2023/01/16 01:48:19;;;;;;;0.90;0.60;;;1.40;99.90;;;;;;5059917;28;20489;-62
2023/01/16 01:50:56;;;;;;;1.70;0.75;;;1.30;99.90;;;;;;5073647;28;20044;-62
2023/01/16 01:53:35;;;;;;;0.63;0.50;;;1.30;99.90;;;;;;5073745;28;20071;-62
2023/01/16 01:56:14;;;;;;;1.38;0.60;;;1.30;99.90;;;;;;5052624;28;20037;-62
2023/01/16 01:58:42;;;;;;;3.05;0.55;;;1.30;99.90;;;;;;5028033;28;20494;-62
2023/01/16 02:01:12;;;;;;;1.08;0.60;;;1.20;99.90;;;;;;5049617;28;20054;-62
2023/01/16 02:04:01;;;;;;;1.15;0.57;;;1.20;99.90;;;;;;5041329;28;20505;-62
2023/01/16 02:06:40;;;;;;;0.90;0.50;;;1.10;99.90;;;;;;5049130;28;20091;-62
2023/01/16 02:09:07;;;;;;;0.63;0.38;;;1.10;99.90;;;;;;5045933;28;20489;-62
2023/01/16 02:11:45;;;;;;;1.85;0.65;;;1.20;99.90;;;;;;5043464;28;20477;-62
2023/01/16 02:14:13;;;;;;;;;;;1.10;99.90;;;;;;5049956;28;20127;-62
2023/01/16 02:19:34;;;;;;;1.77;0.70;;;1.10;99.90;;;;;;5038972;28;20037;-62
2023/01/16 02:22:24;;;;;;;1.58;0.68;;;1.10;99.90;;;;;;5049691;28;20045;-62
2023/01/16 02:25:07;;;;;;;5.35;0.70;;;1.10;99.90;;;;;;5050670;28;20044;-62
2023/01/16 02:27:58;;;;;;;1.15;0.47;;;1.10;99.90;;;;;;5038360;28;20430;-62
2023/01/16 02:30:59;;;;;;;0.40;0.30;;;1.10;99.90;;;;;;5044718;28;20098;-62
2023/01/16 02:33:51;;;;;;;0.60;0.52;;;1.10;99.90;;;;;;5046556;28;20043;-62
2023/01/16 02:36:26;;;;;;;2.78;0.43;;;1.10;99.90;;;;;;5048407;28;20071;-61
2023/01/16 02:39:02;;;;;;;0.88;0.50;;;1.00;99.90;;;;;;5052154;28;20110;-62
2023/01/16 02:41:47;;;;;;;2.75;0.52;;;1.00;99.90;;;;;;5042453;28;20041;-62
2023/01/16 02:44:36;;;;;;;3.40;0.60;;;0.90;99.90;;;;;;5032826;28;20053;-62
2023/01/16 02:47:10;;;;;;;1.38;0.40;;;0.90;99.90;;;;;;5041509;28;20076;-62
2023/01/16 02:49:46;;;;;;;0.57;0.40;;;0.90;99.90;;;;;;5051513;28;20040;-62
2023/01/16 02:52:28;;;;;;;1.17;0.60;;;0.90;99.90;;;;;;5049416;28;20040;-62
2023/01/16 02:55:03;;;;;;;2.67;0.98;;;0.90;99.90;;;;;;5049025;28;20103;-62
2023/01/16 02:57:35;;;;;;;6.18;1.70;;;0.90;99.90;;;;;;5048976;28;20091;-62
2023/01/16 03:00:05;;;;;;;6.93;2.60;;;0.90;99.90;;;;;;5044860;28;20456;-62
2023/01/16 03:02:32;;;;;;;2.88;1.58;;;0.90;99.90;;;;;;5049227;28;20107;-62
2023/01/16 03:04:59;;;;;;;8.15;1.60;;;0.90;99.90;;;;;;5046940;28;20051;-62
2023/01/16 03:07:56;;;;;;;2.70;1.15;;;0.90;99.90;;;;;;5052113;28;20087;-62
2023/01/16 03:10:53;;;;;;;4.63;1.38;;;0.90;99.90;;;;;;5048112;28;20336;-62
2023/01/16 03:13:48;;;;;;;1.95;1.00;;;0.90;99.90;;;;;;5038652;28;20094;-62
2023/01/16 03:16:36;;;;;;;2.65;0.82;;;0.80;99.90;;;;;;5048892;28;20049;-62
2023/01/16 03:19:13;;;;;;;1.58;0.60;;;0.90;99.90;;;;;;5052582;28;20403;-62
2023/01/16 03:22:08;;;;;;;0.93;0.47;;;0.90;99.90;;;;;;5051002;28;21367;-62
2023/01/16 03:24:58;;;;;;;1.33;0.65;;;0.90;99.90;;;;;;5049639;28;20068;-62
2023/01/16 03:27:52;;;;;;;1.33;0.52;;;0.90;99.90;;;;;;5032094;28;20033;-62
2023/01/16 03:30:36;;;;;;;1.35;0.65;;;0.90;99.90;;;;;;5031603;28;20045;-62
2023/01/16 03:33:05;;;;;;;0.98;0.45;;;0.80;99.90;;;;;;5056723;28;20106;-62
2023/01/16 03:35:42;;;;;;;2.17;1.17;;;0.80;99.90;;;;;;5071565;28;20496;-62
2023/01/16 03:38:11;;;;;;;7.70;1.73;;;0.70;99.90;;;;;;5072549;28;20055;-62
2023/01/16 03:40:44;;;;;;;1.42;0.90;;;0.40;99.90;;;;;;5067331;28;20455;-62
2023/01/16 03:43:21;;;;;;;2.88;0.93;;;0.30;99.90;;;;;;5071571;28;20090;-62
2023/01/16 03:45:58;;;;;;;1.05;0.60;;;0.30;99.90;;;;;;5071473;28;20044;-62
2023/01/16 03:48:42;;;;;;;3.22;0.98;;;0.40;99.90;;;;;;5060381;28;20092;-61
2023/01/16 03:51:17;;;;;;;3.70;1.55;;;0.40;99.90;;;;;;5057781;28;20079;-62
2023/01/16 03:53:51;;;;;;;3.15;1.67;;;0.40;99.90;;;;;;5070030;28;20044;-62
2023/01/16 03:56:23;;;;;;;4.47;1.90;;;0.40;99.90;;;;;;5071362;28;20106;-62
2023/01/16 03:58:52;;;;;;;4.57;1.90;;;0.40;99.90;;;;;;5059871;28;20045;-62
2023/01/16 04:01:31;;;;;;;3.92;2.00;;;0.40;99.90;;;;;;5070965;28;20349;-62
2023/01/16 04:03:58;;;;;;;3.35;1.75;;;0.40;99.90;;;;;;5070904;28;20055;-62
2023/01/16 04:06:48;;;;;;;2.25;1.10;;;0.30;99.90;;;;;;5059532;28;20037;-62
2023/01/16 04:09:32;;;;;;;3.28;1.60;;;0.20;99.90;;;;;;5062995;28;20049;-62
2023/01/16 04:12:01;;;;;;;2.72;1.15;;;0.20;99.90;;;;;;5053952;28;20049;-62
2023/01/16 04:14:29;;;;;;;2.22;1.00;;;0.20;99.90;;;;;;5051237;28;20575;-62
2023/01/16 04:16:56;;;;;;;2.10;0.90;;;0.20;99.90;;;;;;5043661;28;20527;-61
2023/01/16 04:19:25;;;;;;;3.55;0.70;;;0.30;99.90;;;;;;5062578;28;20056;-62
2023/01/16 04:21:52;;;;;;;2.13;0.85;;;0.30;99.90;;;;;;5053374;28;20464;-62
2023/01/16 04:24:19;;;;;;;3.08;0.70;;;0.30;99.90;;;;;;5050370;28;20049;-62
2023/01/16 04:26:46;;;;;;;1.90;1.20;;;0.30;99.90;;;;;;5043552;28;20049;-62
2023/01/16 04:29:12;;;;;;;3.75;1.38;;;0.20;99.90;;;;;;5070886;28;20045;-62
2023/01/16 04:31:39;;;;;;;5.40;1.02;;;0.00;99.90;;;;;;5056108;28;20072;-62
2023/01/16 04:34:06;;;;;;;3.45;1.13;;;-0.20;99.90;;;;;;5051135;28;20334;-62
2023/01/16 04:36:33;;;;;;;2.60;1.45;;;-0.30;99.90;;;;;;5050735;28;20098;-62
2023/01/16 04:38:59;;;;;;;2.15;1.27;;;-0.30;99.90;;;;;;5069254;28;20094;-62
2023/01/16 04:41:35;;;;;;;1.50;1.02;;;-0.40;99.90;;;;;;5057610;28;20049;-62
2023/01/16 04:44:04;;;;;;;3.25;1.45;;;-0.40;99.90;;;;;;5047578;28;20041;-62
2023/01/16 04:46:31;;;;;;;3.00;1.90;;;-0.40;99.90;;;;;;5062080;28;20102;-62
2023/01/16 04:48:58;;;;;;;5.82;2.92;;;-0.40;99.90;;;;;;5070876;28;20040;-62
2023/01/16 04:51:25;;;;;;;3.40;2.03;;;-0.30;99.90;;;;;;5058329;28;20045;-62
2023/01/16 04:53:52;;;;;;;;;;;-0.20;99.90;;;;;;5045345;28;20042;-62
2023/01/16 04:56:19;;;;;;;7.30;3.60;;;-0.20;99.90;;;;;;5070525;28;20436;-62
2023/01/16 04:58:45;;;;;;;6.05;3.00;;;-0.10;99.90;;;;;;5070665;28;20045;-62
2023/01/16 05:01:12;;;;;;;6.22;1.83;;;0.00;99.90;;;;;;5070842;28;20052;-62
2023/01/16 05:03:39;;;;;;;11.25;2.53;;;-0.20;99.90;;;;;;5056516;28;20046;-62
2023/01/16 05:06:06;;;;;;;13.27;2.33;;;-0.40;99.90;;;;;;5061085;28;20048;-62
2023/01/16 05:08:32;;;;;;;7.65;3.50;;;-0.50;99.90;;;;;;5070487;28;20098;-62
2023/01/16 05:11:01;;;;;;;7.28;3.45;;;-0.60;99.90;;;;;;5070286;28;20048;-62
2023/01/16 05:13:28;;;;;;;12.98;6.20;;;-0.50;99.90;;;;;;5050650;28;20041;-62
2023/01/16 05:15:56;;;;;;;22.75;7.50;;;-0.50;99.90;;;;;;5069448;28;20075;-62
2023/01/16 05:18:23;;;;;;;17.50;7.38;;;-0.30;99.90;;;;;;5074356;28;20037;-62
2023/01/16 05:20:50;;;;;;;18.45;7.82;;;-0.20;99.90;;;;;;5046929;28;20202;-62
2023/01/16 05:23:17;;;;;;;11.18;6.47;;;-0.20;99.90;;;;;;5062046;28;20086;-62
2023/01/16 05:25:43;;;;;;;12.55;6.60;;;-0.20;99.90;;;;;;5061194;28;20071;-62
2023/01/16 05:28:11;;;;;;;11.18;6.03;;;-0.20;99.90;;;;;;5067111;28;20568;-62
2023/01/16 05:30:37;;;;;;;;;;;-0.20;99.90;;;;;;5045782;28;20436;-62
2023/01/16 05:33:07;;;;;;;15.60;6.28;;;-0.20;99.90;;;;;;5052136;28;19920;-62
2023/01/16 05:35:34;;;;;;;16.35;7.05;;;-0.20;99.90;;;;;;5065598;28;20095;-62
2023/01/16 05:38:00;;;;;;;14.68;7.00;;;-0.20;99.90;;;;;;5053653;28;20045;-62
2023/01/16 05:40:27;;;;;;;16.00;7.95;;;-0.20;99.90;;;;;;5048537;28;20053;-62
2023/01/16 05:42:54;;;;;;;14.05;5.93;;;-0.20;99.90;;;;;;5070921;28;20074;-62
2023/01/16 05:45:21;;;;;;;26.33;8.10;;;-0.10;99.90;;;;;;5068574;28;20778;-62
2023/01/16 05:47:47;;;;;;;19.33;8.70;;;-0.10;99.90;;;;;;5072328;28;20111;-62
2023/01/16 05:50:14;;;;;;;17.73;8.38;;;-0.10;99.90;;;;;;5072827;28;20492;-62
2023/01/16 05:52:41;;;;;;;28.83;9.15;;;-0.10;99.90;;;;;;5073580;28;20045;-62
2023/01/16 05:55:08;;;;;;;22.73;8.82;;;-0.10;99.90;;;;;;5053490;28;20040;-62
2023/01/16 05:57:35;;;;;;;27.10;10.18;;;-0.10;99.90;;;;;;5070411;28;20050;-62
2023/01/16 06:00:03;;;;;;;23.23;9.55;;;-0.10;99.90;;;;;;5086377;22;20094;-65
2023/01/16 06:02:30;;;;;;;20.83;9.02;;;-0.10;99.90;;;;;;5068990;28;20050;-65
2023/01/16 06:04:57;;;;;;;19.90;8.77;;;-0.10;99.90;;;;;;5092848;28;20450;-65
2023/01/16 06:07:23;;;;;;;17.73;8.82;;;0.00;99.90;;;;;;5070942;28;20040;-65
2023/01/16 06:09:50;;;;;;;13.63;7.13;;;0.00;99.90;;;;;;5081148;28;20106;-65
2023/01/16 06:12:42;;;;;;;18.90;9.40;;;0.00;99.90;;;;;;5060977;28;20599;-65
2023/01/16 06:15:09;;;;;;;24.45;11.38;;;0.00;99.90;;;;;;5067505;28;20086;-65
2023/01/16 06:17:36;;;;;;;29.88;12.93;;;0.00;99.90;;;;;;5072799;28;20044;-64
2023/01/16 06:20:02;;;;;;;28.08;12.05;;;0.10;99.90;;;;;;5058982;28;20086;-63
2023/01/16 06:22:29;;;;;;;26.20;11.45;;;0.10;99.90;;;;;;5077692;28;20044;-64
2023/01/16 06:24:56;;;;;;;22.52;9.98;;;0.20;99.90;;;;;;5073915;28;20074;-64
2023/01/16 06:27:23;;;;;;;17.13;9.38;;;0.20;99.90;;;;;;5056768;28;20090;-64
2023/01/16 06:29:50;;;;;;;15.45;7.70;;;0.10;99.90;;;;;;5052287;28;20413;-64
2023/01/16 06:32:16;;;;;;;17.75;8.82;;;0.10;99.90;;;;;;5056332;28;20055;-64
2023/01/16 06:34:44;;;;;;;27.17;10.43;;;0.10;99.90;;;;;;5089287;28;20071;-64
2023/01/16 06:37:11;;;;;;;;;;;0.10;99.90;;;;;;5092115;28;20048;-64
2023/01/16 06:39:37;;;;;;;19.77;9.95;;;0.10;99.90;;;;;;5092913;28;20373;-64
2023/01/16 06:42:04;;;;;;;22.60;9.85;;;0.10;99.90;;;;;;5073489;28;20047;-64
2023/01/16 06:44:32;;;;;;;23.83;9.93;;;0.00;99.90;;;;;;5064712;28;20041;-64
2023/01/16 06:47:00;;;;;;;18.63;8.45;;;0.00;99.90;;;;;;5072960;28;20036;-64
2023/01/16 06:49:27;;;;;;;19.88;8.88;;;0.00;99.90;;;;;;5087046;28;20047;-64
2023/01/16 06:51:54;;;;;;;23.48;10.23;;;0.00;99.90;;;;;;5092313;28;20060;-64
2023/01/16 06:54:21;;;;;;;22.00;10.52;;;0.00;99.90;;;;;;5078260;28;20386;-64
2023/01/16 06:56:48;;;;;;;18.25;9.40;;;-0.10;99.90;;;;;;5064616;28;20095;-64
2023/01/16 06:59:14;;;;;;;14.48;7.15;;;0.00;99.90;;;;;;5045184;28;20508;-63
2023/01/16 07:01:41;;;;;;;19.05;9.00;;;0.00;99.90;;;;;;5072447;28;20041;-64
2023/01/16 07:04:09;;;;;;;19.48;9.10;;;-0.10;99.90;;;;;;5083220;28;20373;-63
2023/01/16 07:06:38;;;;;;;21.50;9.45;;;0.00;99.90;;;;;;5092729;28;20044;-64
2023/01/16 07:09:04;;;;;;;19.02;8.90;;;0.00;99.90;;;;;;5092134;28;20036;-64
2023/01/16 07:11:31;;;;;;;18.95;8.88;;;0.00;99.90;;;;;;5084194;28;20041;-64
2023/01/16 07:25:03;;;;;;;16.40;8.25;;;0.20;99.90;;;;;;5092630;28;20056;-63
2023/01/16 07:27:30;;;;;;;17.02;8.05;;;0.30;99.90;;;;;;5092376;28;20089;-63
2023/01/16 07:29:58;;;;;;;20.80;10.57;;;0.30;99.90;;;;;;5070631;28;20090;-63
2023/01/16 07:32:25;;;;;;;19.63;9.02;;;0.40;99.90;;;;;;5091790;28;20071;-63
2023/01/16 07:34:51;;;;;;;22.27;10.52;;;0.30;99.90;;;;;;5091833;28;20070;-63
2023/01/16 07:37:18;;;;;;;19.35;9.50;;;0.40;99.90;;;;;;5091564;28;20047;-63
2023/01/16 07:39:45;;;;;;;9.27;4.93;;;0.40;99.90;;;;;;5086419;28;20125;-63
2023/01/16 07:42:11;;;;;;;9.82;5.13;;;0.40;99.90;;;;;;5091647;28;20040;-64
2023/01/16 07:44:38;;;;;;;14.30;7.47;;;0.40;99.90;;;;;;5073332;28;20079;-64
2023/01/16 07:47:05;;;;;;;8.68;4.75;;;0.50;99.90;;;;;;5092425;28;20151;-63
2023/01/16 07:49:32;;;;;;;12.18;6.32;;;0.50;99.90;;;;;;5086398;28;20044;-65
2023/01/16 07:51:58;;;;;;;15.60;9.00;;;0.50;99.90;;;;;;5091307;28;20198;-63
2023/01/16 07:54:25;;;;;;;17.63;9.25;;;0.60;99.90;;;;;;5073640;28;20043;-63
2023/01/16 07:56:52;;;;;;;16.95;7.78;;;0.60;99.90;;;;;;5077920;28;20444;-64
2023/01/16 07:59:18;;;;;;;18.50;8.60;;;0.60;99.90;;;;;;5091703;28;20105;-64
2023/01/16 08:01:46;;;;;;;14.88;7.20;;;0.50;99.90;;;;;;5090923;28;20052;-64
2023/01/16 08:04:13;;;;;;;15.32;7.07;;;0.50;99.90;;;;;;5073648;28;20531;-64
2023/01/16 08:06:44;;;;;;;20.77;9.02;;;0.50;99.90;;;;;;5084953;28;20040;-64
2023/01/16 08:09:12;;;;;;;13.52;6.82;;;0.60;99.90;;;;;;5091769;28;20051;-64
2023/01/16 08:11:38;;;;;;;10.82;5.78;;;0.50;99.90;;;;;;5091092;28;20040;-63
2023/01/16 08:14:07;;;;;;;13.60;6.68;;;0.60;99.90;;;;;;5073137;28;20610;-63
2023/01/16 08:16:34;;;;;;;9.63;5.38;;;0.50;99.90;;;;;;5063082;28;20052;-64
2023/01/16 08:19:01;;;;;;;10.88;4.40;;;0.50;99.90;;;;;;5071556;28;20036;-63
2023/01/16 08:21:27;;;;;;;11.70;4.82;;;0.50;99.90;;;;;;5083980;28;20044;-64
2023/01/16 08:23:54;;;;;;;10.70;4.32;;;0.60;99.90;;;;;;5091227;28;20044;-64
2023/01/16 08:26:21;;;;;;;15.15;6.70;;;0.60;99.90;;;;;;5091057;28;20074;-64
2023/01/16 08:28:48;;;;;;;16.90;5.93;;;0.50;99.90;;;;;;5068639;28;20052;-63
2023/01/16 08:31:17;;;;;;;13.77;6.32;;;0.60;99.90;;;;;;5091454;28;20043;-64
2023/01/16 08:33:46;;;;;;;10.77;4.38;;;0.60;99.90;;;;;;5087746;28;20044;-64
2023/01/16 08:36:15;;;;;;;11.00;4.72;;;0.60;99.90;;;;;;5091219;28;20040;-63
2023/01/16 08:38:43;;;;;;;9.73;5.13;;;0.70;99.90;;;;;;5090539;28;20048;-63
2023/01/16 08:51:21;;;;;;;10.18;5.60;;;0.80;99.90;;;;;;5091563;28;20036;-63
2023/01/16 08:52:15;;;;;;;23.70;12.68;;;1.20;99.90;;;;;;5095011;28;20040;-63
2023/01/16 08:54:43;;;;;;;15.82;7.75;;;1.40;99.90;;;;;;5080896;28;20049;-63
2023/01/16 08:57:10;;;;;;;18.48;7.50;;;1.50;99.90;;;;;;5095178;28;20049;-63
2023/01/16 08:59:36;;;;;;;12.23;6.55;;;1.60;99.90;;;;;;5094876;28;20048;-63
2023/01/16 09:02:06;;;;;;;12.68;5.78;;;1.60;99.90;;;;;;5089285;28;20067;-63
2023/01/16 09:04:35;;;;;;;12.18;6.18;;;1.70;99.90;;;;;;5094783;28;20044;-63
2023/01/16 09:07:02;;;;;;;10.30;4.97;;;1.70;99.90;;;;;;5076454;28;20097;-63
2023/01/16 09:09:29;;;;;;;20.90;7.57;;;1.80;99.90;;;;;;5088590;28;20131;-65
2023/01/16 09:14:42;;;;;;;8.73;3.97;;;2.00;99.90;;;;;;5079305;28;20048;-63
2023/01/16 09:17:09;;;;;;;12.38;5.20;;;2.20;99.90;;;;;;5079756;28;20043;-63
2023/01/16 09:19:36;;;;;;;5.72;3.20;;;2.20;99.90;;;;;;5095007;28;20040;-65
2023/01/16 09:22:06;;;;;;;7.00;3.50;;;2.30;99.90;;;;;;5093046;28;20059;-65
2023/01/16 09:24:34;;;;;;;7.57;2.83;;;2.30;99.90;;;;;;5089573;28;20574;-65
2023/01/16 09:27:01;;;;;;;4.40;2.30;;;2.50;99.90;;;;;;5078914;28;20036;-65
2023/01/16 09:29:29;;;;;;;3.20;1.88;;;2.60;99.90;;;;;;5094590;28;20044;-65
2023/01/16 09:31:56;;;;;;;5.40;2.40;;;2.70;99.90;;;;;;5094121;28;20047;-65
2023/01/16 09:34:23;;;;;;;4.00;2.30;;;2.80;99.90;;;;;;5085762;28;20041;-65
2023/01/16 09:36:50;;;;;;;3.70;2.00;;;2.80;99.90;;;;;;5093243;28;20051;-64
2023/01/16 09:39:17;;;;;;;3.30;1.70;;;2.90;99.90;;;;;;5094427;28;20122;-65
2023/01/16 09:45:13;;;;;;;4.00;1.83;;;2.80;99.90;;;;;;5086735;28;20492;-65
2023/01/16 09:47:45;;;;;;;4.25;2.20;;;2.90;99.90;;;;;;5093862;28;20036;-64
2023/01/16 09:50:23;;;;;;;2.88;1.70;;;3.00;99.90;;;;;;5094697;28;20044;-64
2023/01/16 09:58:35;;;;;;;8.63;3.20;;;3.10;99.90;;;;;;5074005;28;20052;-64
2023/01/16 10:01:26;;;;;;;9.43;4.63;;;3.20;99.90;;;;;;5070992;28;20059;-64
2023/01/16 10:04:03;;;;;;;9.10;3.67;;;3.20;99.90;;;;;;5090626;28;20401;-65
2023/01/16 10:06:39;;;;;;;8.77;4.18;;;3.30;99.90;;;;;;5073415;28;20044;-65
2023/01/16 10:09:26;;;;;;;3.85;2.20;;;3.40;99.90;;;;;;5073800;28;20103;-64
2023/01/16 10:12:08;;;;;;;12.02;5.75;;;3.30;99.90;;;;;;5061132;28;20044;-64
2023/01/16 10:14:54;;;;;;;8.48;4.15;;;3.20;99.90;;;;;;5078800;28;20047;-65
2023/01/16 10:17:29;;;;;;;7.78;3.75;;;3.20;99.90;;;;;;5075482;28;20048;-64
2023/01/16 10:20:16;;;;;;;5.55;3.17;;;3.10;99.90;;;;;;5068429;28;20045;-64
2023/01/16 10:22:49;;;;;;;4.53;2.40;;;3.20;99.90;;;;;;5036207;28;20076;-65
2023/01/16 10:25:29;;;;;;;3.38;1.83;;;3.20;99.90;;;;;;5072966;28;20044;-65
2023/01/16 10:28:15;;;;;;;3.95;1.75;;;3.20;99.90;;;;;;5071779;28;20041;-65
2023/01/16 10:30:56;;;;;;;2.90;1.50;;;3.20;99.90;;;;;;5058731;28;20466;-65
2023/01/16 10:33:33;;;;;;;4.07;1.40;;;3.30;99.90;;;;;;5093248;28;20044;-65
2023/01/16 10:36:11;;;;;;;2.15;1.40;;;3.40;99.90;;;;;;5090213;28;20086;-65
2023/01/16 10:38:55;;;;;;;10.73;4.25;;;3.50;99.90;;;;;;5093343;28;20043;-64
2023/01/16 10:50:18;;;;;;;8.35;3.65;;;4.40;99.90;;;;;;5092946;28;20040;-65
2023/01/16 10:53:03;;;;;;;4.22;2.20;;;4.50;99.90;;;;;;5092994;28;20131;-64
2023/01/16 10:55:35;;;;;;;4.20;1.90;;;4.70;99.90;;;;;;5072008;28;20404;-65
2023/01/16 10:58:20;;;;;;;4.55;1.95;;;4.70;99.90;;;;;;5093278;28;20040;-64
2023/01/16 11:00:49;;;;;;;2.25;1.27;;;4.80;99.90;;;;;;5092473;28;20409;-65
2023/01/16 11:03:35;;;;;;;3.88;2.17;;;4.70;99.90;;;;;;5092609;28;20052;-64
2023/01/16 11:06:12;;;;;;;2.55;1.52;;;4.80;99.90;;;;;;5076231;28;20089;-64
2023/01/16 11:08:44;;;;;;;5.18;2.28;;;4.70;99.90;;;;;;5092700;28;20040;-64
2023/01/16 11:19:45;;;;;;;2.63;1.48;;;4.80;99.90;;;;;;5092595;28;20048;-65
2023/01/16 11:22:27;;;;;;;2.85;1.85;;;4.80;99.90;;;;;;5070979;28;20063;-65
2023/01/16 11:25:00;;;;;;;1.92;1.20;;;4.90;99.90;;;;;;5092411;28;20040;-65
2023/01/16 11:27:33;;;;;;;4.10;1.63;;;4.80;99.90;;;;;;5092136;28;20044;-64
2023/01/16 11:30:05;;;;;;;2.80;1.42;;;4.80;99.90;;;;;;5092930;28;20043;-64
2023/01/16 11:32:37;;;;;;;7.78;2.22;;;4.80;99.90;;;;;;5083789;28;20040;-65
2023/01/16 11:35:12;;;;;;;3.47;1.90;;;5.40;99.90;;;;;;5052188;28;20549;-65
2023/01/16 11:37:41;;;;;;;2.45;1.67;;;4.90;99.90;;;;;;5085092;28;20454;-65
2023/01/16 11:40:17;;;;;;;3.20;1.80;;;4.90;99.90;;;;;;5091844;28;20040;-64
2023/01/16 11:46:04;;;;;;;8.98;1.70;;;5.10;99.90;;;;;;5069379;28;20090;-64
2023/01/16 11:48:44;;;;;;;3.72;2.25;;;5.10;99.90;;;;;;5084357;28;20040;-64
2023/01/16 11:51:21;;;;;;;4.40;2.05;;;5.10;99.90;;;;;;5071352;28;20070;-65
2023/01/16 11:53:50;;;;;;;4.45;1.92;;;5.20;99.90;;;;;;5067002;28;20041;-64
2023/01/16 11:56:49;;;;;;;3.30;1.70;;;5.30;99.90;;;;;;5065688;28;20049;-64
2023/01/16 11:59:34;;;;;;;8.88;2.10;;;5.20;99.90;;;;;;5041403;22;20454;-62
2023/01/16 12:02:35;;;;;;;3.92;1.75;;;5.20;99.90;;;;;;5078473;28;20036;-62
2023/01/16 12:05:57;;;;;;;3.80;2.20;;;5.20;99.90;;;;;;5091158;28;20048;-61
2023/01/16 12:08:53;;;;;;;3.85;1.67;;;5.20;99.90;;;;;;5026913;28;20064;-60
2023/01/16 12:11:43;;;;;;;4.28;1.90;;;5.20;99.90;;;;;;5059961;28;20052;-62
2023/01/16 12:14:24;;;;;;;5.00;2.00;;;5.20;99.90;;;;;;5070903;28;20048;-60
2023/01/16 12:17:02;;;;;;;2.70;1.67;;;5.20;99.90;;;;;;5071307;28;20559;-60
2023/01/16 12:19:46;;;;;;;3.83;1.70;;;5.20;99.90;;;;;;5068394;28;20052;-60
2023/01/16 12:22:44;;;;;;;4.32;2.17;;;5.30;99.90;;;;;;5070866;28;20458;-60
2023/01/16 12:25:19;;;;;;;7.68;1.77;;;5.40;99.90;;;;;;5071605;28;20044;-60
2023/01/16 12:28:02;;;;;;;5.25;1.90;;;5.50;99.90;;;;;;5058344;28;20044;-60
2023/01/16 12:30:49;;;;;;;4.10;1.73;;;5.50;99.90;;;;;;5071360;28;20048;-61
2023/01/16 12:33:32;;;;;;;3.75;1.70;;;5.40;99.90;;;;;;5070609;28;20029;-60
2023/01/16 12:36:24;;;;;;;2.83;1.55;;;5.30;99.90;;;;;;5068081;28;20041;-61
2023/01/16 12:39:18;;;;;;;3.47;1.90;;;5.20;99.90;;;;;;5070858;28;20080;-61
2023/01/16 12:45:08;;;;;;;3.85;2.00;;;5.10;99.90;;;;;;5070684;28;20405;-61
2023/01/16 12:48:01;;;;;;;4.00;1.52;;;5.10;99.90;;;;;;5070781;28;20091;-61
2023/01/16 12:51:11;;;;;;;3.17;1.83;;;5.10;99.90;;;;;;5067777;28;20048;-61
2023/01/16 12:54:16;;;;;;;3.28;1.80;;;5.00;99.90;;;;;;5070679;28;20493;-61
2023/01/16 12:57:06;;;;;;;2.20;1.33;;;5.10;99.90;;;;;;5070926;28;20544;-60
2023/01/16 13:00:01;;;;;;;4.45;1.38;;;5.10;99.90;;;;;;5067849;28;20119;-61
2023/01/16 13:02:47;;;;;;;5.97;1.55;;;5.20;99.90;;;;;;5052751;28;20044;-61
2023/01/16 13:05:21;;;;;;;2.20;1.55;;;5.20;99.90;;;;;;5070845;28;20052;-61
2023/01/16 13:07:56;;;;;;;4.35;1.55;;;5.20;99.90;;;;;;5062440;28;20559;-61
2023/01/16 13:13:29;;;;;;;2.20;1.30;;;5.20;99.90;;;;;;5070225;28;20040;-61
2023/01/16 13:16:30;;;;;;;2.25;1.20;;;5.20;99.90;;;;;;5070953;28;20033;-61
2023/01/16 13:19:03;;;;;;;3.42;1.20;;;5.10;99.90;;;;;;5060971;28;20044;-61
2023/01/16 13:21:36;;;;;;;3.17;1.35;;;5.10;99.90;;;;;;5054379;28;20057;-62
2023/01/16 13:24:18;;;;;;;3.83;1.58;;;5.20;99.90;;;;;;5044465;28;20410;-61
2023/01/16 13:26:50;;;;;;;2.67;1.60;;;5.20;99.90;;;;;;5038602;28;20119;-61
2023/01/16 13:29:41;;;;;;;3.70;1.70;;;5.30;99.90;;;;;;5030340;28;20038;-61
2023/01/16 13:32:31;;;;;;;2.53;1.23;;;5.30;99.90;;;;;;5029425;28;20091;-61
2023/01/16 13:35:25;;;;;;;2.75;1.25;;;5.20;99.90;;;;;;5043307;28;20044;-62
2023/01/16 13:38:04;;;;;;;3.38;1.45;;;5.10;99.90;;;;;;5063107;28;20110;-61
2023/01/16 13:40:45;;;;;;;2.05;1.08;;;5.10;99.90;;;;;;5073689;28;20045;-61
2023/01/16 13:46:08;;;;;;;4.15;1.52;;;5.10;99.90;;;;;;5067733;28;20050;-61
2023/01/16 13:48:36;;;;;;;2.72;1.67;;;5.10;99.90;;;;;;5066759;28;20067;-61
2023/01/16 13:51:13;;;;;;;2.53;1.30;;;5.10;99.90;;;;;;5072957;28;20094;-62
2023/01/16 13:53:41;;;;;;;2.40;1.27;;;5.00;99.90;;;;;;5073704;28;20451;-61
2023/01/16 13:56:18;;;;;;;3.17;1.10;;;5.00;99.90;;;;;;5057518;28;20038;-61
2023/01/16 13:58:52;;;;;;;3.92;1.05;;;5.00;99.90;;;;;;5056025;28;20087;-62
2023/01/16 14:01:53;;;;;;;6.65;1.55;;;5.00;99.90;;;;;;5073781;28;20052;-62
2023/01/16 14:04:19;;;;;;;3.47;1.63;;;5.00;99.90;;;;;;5060616;28;20048;-61
2023/01/16 14:10:23;;;;;;;6.38;1.40;;;5.00;99.90;;;;;;5073373;28;20052;-62
2023/01/16 14:13:12;;;;;;;;;;;5.10;99.90;;;;;;5071614;28;20120;-61
2023/01/16 14:19:02;;;;;;;1.80;0.95;;;5.00;99.90;;;;;;5055372;28;20485;-62
2023/01/16 14:21:37;;;;;;;3.42;0.95;;;5.10;99.90;;;;;;5043630;28;20041;-61
2023/01/16 14:24:14;;;;;;;1.90;0.98;;;5.00;99.90;;;;;;5033446;28;20482;-61
2023/01/16 14:26:44;;;;;;;3.55;1.30;;;5.00;99.90;;;;;;5033652;28;20111;-61
2023/01/16 14:29:26;;;;;;;2.08;1.20;;;5.00;99.90;;;;;;5033791;28;20407;-62
2023/01/16 14:31:56;;;;;;;3.25;1.80;;;5.00;99.90;;;;;;5037331;28;20109;-62
2023/01/16 14:34:28;;;;;;;45.05;13.82;;;5.00;99.90;;;;;;5066704;28;20041;-62